sensor_id;sensor_type;location;lat;lon;timestamp;pressure;altitude;pressure_sealevel;temperature;humidity
40596;BME280;26304;48.794;9.820;2022-11-14T00:01:36;96268.03;;;16.04;54.50
40596;BME280;26304;48.794;9.820;2022-11-14T00:07:19;96263.88;;;16.03;54.71
40596;BME280;26304;48.794;9.820;2022-11-14T00:13:01;96258.25;;;16.01;54.77
40596;BME280;26304;48.794;9.820;2022-11-14T00:18:45;96250.78;;;16.03;54.12
40596;BME280;26304;48.794;9.820;2022-11-14T00:24:27;96250.75;;;15.99;54.44
40596;BME280;26304;48.794;9.820;2022-11-14T00:30:10;96247.34;;;15.98;54.41
40596;BME280;26304;48.794;9.820;2022-11-14T00:35:55;96241.72;;;15.96;54.84
40596;BME280;26304;48.794;9.820;2022-11-14T00:41:38;96226.31;;;15.91;54.74
40596;BME280;26304;48.794;9.820;2022-11-14T00:47:21;96227.81;;;15.92;55.06
40596;BME280;26304;48.794;9.820;2022-11-14T00:53:04;96223.28;;;15.89;54.61
40596;BME280;26304;48.794;9.820;2022-11-14T00:58:47;96218.03;;;15.89;54.68
40596;BME280;26304;48.794;9.820;2022-11-14T01:04:29;96211.28;;;15.88;54.03
40596;BME280;26304;48.794;9.820;2022-11-14T01:10:14;96206.75;;;15.85;54.10
40596;BME280;26304;48.794;9.820;2022-11-14T01:15:59;96210.47;;;15.84;54.55
40596;BME280;26304;48.794;9.820;2022-11-14T01:21:42;96203.38;;;15.85;54.19
40596;BME280;26304;48.794;9.820;2022-11-14T01:27:29;96208.97;;;15.83;54.38
40596;BME280;26304;48.794;9.820;2022-11-14T01:33:11;96207.47;;;15.82;54.23
40596;BME280;26304;48.794;9.820;2022-11-14T01:38:54;96205.19;;;15.80;54.43
40596;BME280;26304;48.794;9.820;2022-11-14T01:44:44;96196.56;;;15.80;54.36
40596;BME280;26304;48.794;9.820;2022-11-14T01:50:27;96192.44;;;15.79;54.02
40596;BME280;26304;48.794;9.820;2022-11-14T01:56:11;96180.09;;;15.79;53.82
40596;BME280;26304;48.794;9.820;2022-11-14T02:02:01;96169.97;;;15.78;53.78
40596;BME280;26304;48.794;9.820;2022-11-14T02:07:45;96175.56;;;15.76;53.05
40596;BME280;26304;48.794;9.820;2022-11-14T02:13:29;96168.03;;;15.75;53.23
40596;BME280;26304;48.794;9.820;2022-11-14T02:19:14;96171.00;;;15.73;53.14
40596;BME280;26304;48.794;9.820;2022-11-14T02:24:58;96193.06;;;15.72;53.28
40596;BME280;26304;48.794;9.820;2022-11-14T02:30:40;96180.38;;;15.74;53.45
40596;BME280;26304;48.794;9.820;2022-11-14T02:36:23;96186.38;;;15.75;53.56
40596;BME280;26304;48.794;9.820;2022-11-14T02:42:07;96192.34;;;15.72;53.54
40596;BME280;26304;48.794;9.820;2022-11-14T02:47:49;96181.44;;;15.70;53.08
40596;BME280;26304;48.794;9.820;2022-11-14T02:53:32;96164.97;;;15.69;52.89
40596;BME280;26304;48.794;9.820;2022-11-14T02:59:15;96166.41;;;15.67;53.14
40596;BME280;26304;48.794;9.820;2022-11-14T03:04:58;96158.56;;;15.67;52.90
40596;BME280;26304;48.794;9.820;2022-11-14T03:10:41;96147.69;;;15.65;53.43
40596;BME280;26304;48.794;9.820;2022-11-14T03:16:24;96146.19;;;15.64;52.95
40596;BME280;26304;48.794;9.820;2022-11-14T03:22:07;96134.19;;;15.62;53.32
40596;BME280;26304;48.794;9.820;2022-11-14T03:27:49;96141.66;;;15.60;52.94
40596;BME280;26304;48.794;9.820;2022-11-14T03:33:34;96173.84;;;15.61;52.94
40596;BME280;26304;48.794;9.820;2022-11-14T03:39:16;96179.44;;;15.59;53.05
40596;BME280;26304;48.794;9.820;2022-11-14T03:44:59;96183.16;;;15.58;53.07
40596;BME280;26304;48.794;9.820;2022-11-14T03:50:43;96167.03;;;15.56;52.62
40596;BME280;26304;48.794;9.820;2022-11-14T03:56:25;96176.00;;;15.55;52.87
40596;BME280;26304;48.794;9.820;2022-11-14T04:02:08;96185.00;;;15.54;52.58
40596;BME280;26304;48.794;9.820;2022-11-14T04:07:52;96176.72;;;15.52;53.08
40596;BME280;26304;48.794;9.820;2022-11-14T04:13:34;96185.34;;;15.53;52.69
40596;BME280;26304;48.794;9.820;2022-11-14T04:19:16;96179.88;;;15.65;52.89
40596;BME280;26304;48.794;9.820;2022-11-14T04:25:00;96156.66;;;15.64;53.08
40596;BME280;26304;48.794;9.820;2022-11-14T04:30:42;96133.34;;;15.55;53.66
40596;BME280;26304;48.794;9.820;2022-11-14T04:36:26;96129.03;;;15.70;52.97
40596;BME280;26304;48.794;9.820;2022-11-14T04:42:09;96131.91;;;15.61;53.02
40596;BME280;26304;48.794;9.820;2022-11-14T04:47:52;96115.81;;;15.59;53.24
40596;BME280;26304;48.794;9.820;2022-11-14T04:53:34;96109.50;;;15.64;54.00
40596;BME280;26304;48.794;9.820;2022-11-14T04:59:18;96114.22;;;17.08;51.42
40596;BME280;26304;48.794;9.820;2022-11-14T05:05:00;96112.06;;;18.23;49.47
40596;BME280;26304;48.794;9.820;2022-11-14T05:10:43;96120.78;;;18.96;48.11
40596;BME280;26304;48.794;9.820;2022-11-14T05:16:27;96112.84;;;18.74;48.88
40596;BME280;26304;48.794;9.820;2022-11-14T05:22:10;96117.38;;;18.56;49.63
40596;BME280;26304;48.794;9.820;2022-11-14T05:27:52;96121.09;;;18.22;50.21
40596;BME280;26304;48.794;9.820;2022-11-14T05:33:36;96087.94;;;17.89;51.13
40596;BME280;26304;48.794;9.820;2022-11-14T05:39:18;96111.94;;;17.84;51.08
40596;BME280;26304;48.794;9.820;2022-11-14T05:45:00;96115.66;;;17.68;51.54
40596;BME280;26304;48.794;9.820;2022-11-14T05:50:44;96127.22;;;17.56;51.53
40596;BME280;26304;48.794;9.820;2022-11-14T05:56:27;96124.53;;;17.42;51.95
40596;BME280;26304;48.794;9.820;2022-11-14T06:02:09;96116.97;;;17.30;52.12
40596;BME280;26304;48.794;9.820;2022-11-14T06:07:57;96131.94;;;17.22;51.77
40596;BME280;26304;48.794;9.820;2022-11-14T06:13:40;96115.31;;;17.07;52.85
40596;BME280;26304;48.794;9.820;2022-11-14T06:19:22;96103.72;;;17.08;51.81
40596;BME280;26304;48.794;9.820;2022-11-14T06:25:07;96111.22;;;17.10;52.19
40596;BME280;26304;48.794;9.820;2022-11-14T06:30:50;96131.78;;;17.00;53.22
40596;BME280;26304;48.794;9.820;2022-11-14T06:36:32;96123.47;;;16.91;52.17
40596;BME280;26304;48.794;9.820;2022-11-14T06:42:16;96119.25;;;16.79;52.52
40596;BME280;26304;48.794;9.820;2022-11-14T06:47:59;96110.94;;;16.74;51.89
40596;BME280;26304;48.794;9.820;2022-11-14T06:53:41;96133.06;;;16.69;52.37
40596;BME280;26304;48.794;9.820;2022-11-14T06:59:25;96139.75;;;16.63;53.06
40596;BME280;26304;48.794;9.820;2022-11-14T07:05:08;96131.50;;;16.64;52.64
40596;BME280;26304;48.794;9.820;2022-11-14T07:10:50;96148.69;;;16.58;53.06
40596;BME280;26304;48.794;9.820;2022-11-14T07:16:35;96149.44;;;16.55;53.21
40596;BME280;26304;48.794;9.820;2022-11-14T07:22:17;96165.19;;;16.59;52.53
40596;BME280;26304;48.794;9.820;2022-11-14T07:27:59;96177.94;;;16.60;53.00
40596;BME280;26304;48.794;9.820;2022-11-14T07:33:44;96177.94;;;16.57;52.62
40596;BME280;26304;48.794;9.820;2022-11-14T07:39:26;96184.63;;;16.54;52.40
40596;BME280;26304;48.794;9.820;2022-11-14T07:45:10;96174.22;;;16.61;52.98
40596;BME280;26304;48.794;9.820;2022-11-14T07:50:57;96186.94;;;16.59;52.72
40596;BME280;26304;48.794;9.820;2022-11-14T07:56:40;96187.69;;;16.56;52.94
40596;BME280;26304;48.794;9.820;2022-11-14T08:02:22;96174.09;;;16.47;52.65
40596;BME280;26304;48.794;9.820;2022-11-14T08:08:06;96175.59;;;16.48;52.82
40596;BME280;26304;48.794;9.820;2022-11-14T08:13:48;96180.06;;;16.44;52.98
40596;BME280;26304;48.794;9.820;2022-11-14T08:19:31;96180.84;;;16.48;52.62
40596;BME280;26304;48.794;9.820;2022-11-14T08:25:14;96188.69;;;16.48;52.50
40596;BME280;26304;48.794;9.820;2022-11-14T08:30:58;96195.09;;;16.47;52.50
40596;BME280;26304;48.794;9.820;2022-11-14T08:36:41;96192.09;;;16.48;52.87
40596;BME280;26304;48.794;9.820;2022-11-14T08:49:02;96199.38;;;16.28;55.51
40596;BME280;26304;48.794;9.820;2022-11-14T08:54:44;96202.00;;;16.28;55.24
40596;BME280;26304;48.794;9.820;2022-11-14T09:00:27;96204.66;;;16.32;54.67
40596;BME280;26304;48.794;9.820;2022-11-14T09:06:11;96211.06;;;16.34;54.24
40596;BME280;26304;48.794;9.820;2022-11-14T09:11:53;96215.22;;;16.36;54.71
40596;BME280;26304;48.794;9.820;2022-11-14T09:17:36;96221.25;;;16.43;54.82
40596;BME280;26304;48.794;9.820;2022-11-14T09:23:20;96219.06;;;16.45;54.82
40596;BME280;26304;48.794;9.820;2022-11-14T09:29:02;96239.00;;;16.53;54.49
40596;BME280;26304;48.794;9.820;2022-11-14T09:48:06;96233.31;;;16.48;54.44
40596;BME280;26304;48.794;9.820;2022-11-14T09:53:55;96244.44;;;16.38;54.60
40596;BME280;26304;48.794;9.820;2022-11-14T09:59:41;96251.16;;;16.35;55.84
40596;BME280;26304;48.794;9.820;2022-11-14T10:31:54;96244.94;;;16.47;56.49
40596;BME280;26304;48.794;9.820;2022-11-14T10:37:52;96242.97;;;18.48;51.75
40596;BME280;26304;48.794;9.820;2022-11-14T10:43:41;96241.91;;;18.92;50.54
40596;BME280;26304;48.794;9.820;2022-11-14T10:49:25;96243.03;;;19.63;48.98
40596;BME280;26304;48.794;9.820;2022-11-14T10:55:15;96244.50;;;19.89;50.12
40596;BME280;26304;48.794;9.820;2022-11-14T11:14:17;96218.22;;;19.03;53.14
40596;BME280;26304;48.794;9.820;2022-11-14T11:20:31;96203.13;;;18.82;53.33
40596;BME280;26304;48.794;9.820;2022-11-14T11:26:23;96212.84;;;18.45;54.32
40596;BME280;26304;48.794;9.820;2022-11-14T11:32:07;96209.44;;;18.30;54.53
40596;BME280;26304;48.794;9.820;2022-11-14T11:37:53;96208.25;;;18.10;55.15
40596;BME280;26304;48.794;9.820;2022-11-14T11:43:41;96205.56;;;18.03;55.39
40596;BME280;26304;48.794;9.820;2022-11-14T11:49:36;96203.31;;;17.94;55.48
40596;BME280;26304;48.794;9.820;2022-11-14T11:55:24;96207.38;;;17.84;55.59
40596;BME280;26304;48.794;9.820;2022-11-14T12:01:09;96198.25;;;17.71;55.35
40596;BME280;26304;48.794;9.820;2022-11-14T12:07:09;96210.28;;;17.65;55.57
40596;BME280;26304;48.794;9.820;2022-11-14T12:13:10;96203.13;;;17.61;55.39
40596;BME280;26304;48.794;9.820;2022-11-14T12:25:58;96208.66;;;17.46;56.35
40596;BME280;26304;48.794;9.820;2022-11-14T12:31:43;96213.13;;;17.45;55.95
40596;BME280;26304;48.794;9.820;2022-11-14T12:37:30;96213.94;;;18.23;54.36
40596;BME280;26304;48.794;9.820;2022-11-14T12:43:29;96209.84;;;19.94;50.18
40596;BME280;26304;48.794;9.820;2022-11-14T12:49:37;96211.03;;;20.53;49.00
40596;BME280;26304;48.794;9.820;2022-11-14T12:55:53;96213.94;;;20.77;48.60
40596;BME280;26304;48.794;9.820;2022-11-14T13:01:47;96208.13;;;20.96;48.01
40596;BME280;26304;48.794;9.820;2022-11-14T13:07:40;96199.13;;;20.94;48.65
40596;BME280;26304;48.794;9.820;2022-11-14T13:13:26;96199.94;;;20.87;48.55
40596;BME280;26304;48.794;9.820;2022-11-14T13:19:28;96188.47;;;20.45;49.48
40596;BME280;26304;48.794;9.820;2022-11-14T13:25:28;96187.09;;;20.15;49.64
40596;BME280;26304;48.794;9.820;2022-11-14T13:31:18;96165.03;;;19.73;50.79
40596;BME280;26304;48.794;9.820;2022-11-14T13:37:12;96159.09;;;19.33;52.30
40596;BME280;26304;48.794;9.820;2022-11-14T13:43:08;96156.84;;;19.24;52.49
40596;BME280;26304;48.794;9.820;2022-11-14T13:49:08;96148.22;;;19.16;52.76
40596;BME280;26304;48.794;9.820;2022-11-14T13:54:54;96162.91;;;19.14;52.64
40596;BME280;26304;48.794;9.820;2022-11-14T14:00:53;96149.72;;;19.03;52.73
40596;BME280;26304;48.794;9.820;2022-11-14T14:06:47;96152.72;;;19.05;54.28
40596;BME280;26304;48.794;9.820;2022-11-14T14:12:49;96151.19;;;19.26;53.09
40596;BME280;26304;48.794;9.820;2022-11-14T14:18:43;96162.88;;;19.28;52.81
40596;BME280;26304;48.794;9.820;2022-11-14T14:24:49;96168.53;;;19.34;52.80
40596;BME280;26304;48.794;9.820;2022-11-14T14:30:35;96167.75;;;19.37;52.48
40596;BME280;26304;48.794;9.820;2022-11-14T14:36:20;96167.00;;;19.33;53.25
40596;BME280;26304;48.794;9.820;2022-11-14T14:42:09;96168.16;;;19.35;52.64
40596;BME280;26304;48.794;9.820;2022-11-14T14:48:00;96174.91;;;19.36;52.25
40596;BME280;26304;48.794;9.820;2022-11-14T14:53:50;96178.28;;;19.37;52.56
40596;BME280;26304;48.794;9.820;2022-11-14T14:59:34;96176.44;;;19.34;52.41
40596;BME280;26304;48.794;9.820;2022-11-14T15:05:25;96168.88;;;19.29;52.41
40596;BME280;26304;48.794;9.820;2022-11-14T15:11:08;96174.53;;;19.27;52.43
40596;BME280;26304;48.794;9.820;2022-11-14T15:16:51;96172.28;;;19.26;52.37
40596;BME280;26304;48.794;9.820;2022-11-14T15:22:37;96173.06;;;19.19;52.35
40596;BME280;26304;48.794;9.820;2022-11-14T15:28:20;96170.06;;;19.06;52.56
40596;BME280;26304;48.794;9.820;2022-11-14T15:34:05;96178.34;;;19.01;52.85
40596;BME280;26304;48.794;9.820;2022-11-14T15:40:15;96177.94;;;18.95;52.70
40596;BME280;26304;48.794;9.820;2022-11-14T15:45:58;96189.63;;;18.91;52.74
40596;BME280;26304;48.794;9.820;2022-11-14T15:51:43;96185.50;;;18.90;53.14
40596;BME280;26304;48.794;9.820;2022-11-14T15:57:27;96191.84;;;18.78;54.04
40596;BME280;26304;48.794;9.820;2022-11-14T16:03:13;96200.88;;;18.80;53.86
40596;BME280;26304;48.794;9.820;2022-11-14T16:08:56;96209.59;;;18.99;53.41
40596;BME280;26304;48.794;9.820;2022-11-14T16:14:40;96196.41;;;18.92;54.01
40596;BME280;26304;48.794;9.820;2022-11-14T16:20:24;96204.66;;;18.94;54.46
40596;BME280;26304;48.794;9.820;2022-11-14T16:26:07;96198.59;;;18.61;55.09
40596;BME280;26304;48.794;9.820;2022-11-14T16:31:50;96199.31;;;18.50;55.59
40596;BME280;26304;48.794;9.820;2022-11-14T16:37:33;96209.03;;;18.28;55.96
40596;BME280;26304;48.794;9.820;2022-11-14T16:43:16;96208.38;;;18.57;55.01
40596;BME280;26304;48.794;9.820;2022-11-14T16:49:00;96216.25;;;18.53;54.92
40596;BME280;26304;48.794;9.820;2022-11-14T16:54:43;96215.13;;;18.50;54.86
40596;BME280;26304;48.794;9.820;2022-11-14T17:00:25;96221.13;;;18.44;55.36
40596;BME280;26304;48.794;9.820;2022-11-14T17:06:09;96217.38;;;18.45;54.86
40596;BME280;26304;48.794;9.820;2022-11-14T17:11:52;96217.38;;;18.45;55.10
40596;BME280;26304;48.794;9.820;2022-11-14T17:17:34;96218.13;;;18.45;55.05
40596;BME280;26304;48.794;9.820;2022-11-14T17:23:18;96215.50;;;18.38;54.98
40596;BME280;26304;48.794;9.820;2022-11-14T17:29:00;96215.09;;;18.36;54.84
40596;BME280;26304;48.794;9.820;2022-11-14T17:34:43;96217.34;;;18.27;54.81
40596;BME280;26304;48.794;9.820;2022-11-14T17:40:27;96223.34;;;18.31;54.63
40596;BME280;26304;48.794;9.820;2022-11-14T17:46:10;96220.34;;;18.36;54.81
40596;BME280;26304;48.794;9.820;2022-11-14T17:51:53;96221.09;;;18.33;55.29
40596;BME280;26304;48.794;9.820;2022-11-14T17:57:37;96229.78;;;18.44;55.25
40596;BME280;26304;48.794;9.820;2022-11-14T18:03:20;96224.13;;;18.46;55.28
40596;BME280;26304;48.794;9.820;2022-11-14T18:09:02;96217.03;;;18.57;55.86
40596;BME280;26304;48.794;9.820;2022-11-14T18:14:47;96217.41;;;18.63;56.27
40596;BME280;26304;48.794;9.820;2022-11-14T18:20:30;96223.44;;;18.74;57.68
40596;BME280;26304;48.794;9.820;2022-11-14T18:26:14;96225.75;;;18.94;58.77
40596;BME280;26304;48.794;9.820;2022-11-14T18:31:58;96223.50;;;18.96;59.46
40596;BME280;26304;48.794;9.820;2022-11-14T18:37:43;96212.56;;;19.33;59.47
40596;BME280;26304;48.794;9.820;2022-11-14T18:43:26;96217.47;;;19.28;58.91
40596;BME280;26304;48.794;9.820;2022-11-14T18:49:13;96210.72;;;19.09;58.60
40596;BME280;26304;48.794;9.820;2022-11-14T18:54:55;96201.28;;;18.97;59.17
40596;BME280;26304;48.794;9.820;2022-11-14T19:00:38;96197.53;;;18.91;59.35
40596;BME280;26304;48.794;9.820;2022-11-14T19:06:21;96196.03;;;18.90;59.21
40596;BME280;26304;48.794;9.820;2022-11-14T19:12:04;96194.50;;;18.88;58.72
40596;BME280;26304;48.794;9.820;2022-11-14T19:18:01;96195.66;;;18.87;58.88
40596;BME280;26304;48.794;9.820;2022-11-14T19:23:44;96187.00;;;18.87;58.75
40596;BME280;26304;48.794;9.820;2022-11-14T19:29:27;96204.66;;;18.83;58.51
40596;BME280;26304;48.794;9.820;2022-11-14T19:35:09;96201.63;;;18.81;58.33
40596;BME280;26304;48.794;9.820;2022-11-14T19:40:53;96201.63;;;18.81;58.44
40596;BME280;26304;48.794;9.820;2022-11-14T19:46:35;96202.75;;;18.76;57.88
40596;BME280;26304;48.794;9.820;2022-11-14T19:52:18;96221.19;;;18.65;58.13
40596;BME280;26304;48.794;9.820;2022-11-14T19:58:02;96223.72;;;18.33;57.24
40596;BME280;26304;48.794;9.820;2022-11-14T20:03:49;96221.75;;;18.05;54.74
40596;BME280;26304;48.794;9.820;2022-11-14T20:09:31;96226.59;;;17.95;53.42
40596;BME280;26304;48.794;9.820;2022-11-14T20:15:15;96216.72;;;17.74;52.69
40596;BME280;26304;48.794;9.820;2022-11-14T20:21:01;96215.50;;;17.61;51.75
40596;BME280;26304;48.794;9.820;2022-11-14T20:26:44;96213.19;;;17.52;51.50
40596;BME280;26304;48.794;9.820;2022-11-14T20:32:27;96221.38;;;17.43;51.57
40596;BME280;26304;48.794;9.820;2022-11-14T20:38:10;96221.00;;;17.41;51.25
40596;BME280;26304;48.794;9.820;2022-11-14T20:43:53;96230.78;;;17.45;51.69
40596;BME280;26304;48.794;9.820;2022-11-14T20:49:36;96224.69;;;17.30;50.83
40596;BME280;26304;48.794;9.820;2022-11-14T20:55:19;96225.78;;;17.25;51.53
40596;BME280;26304;48.794;9.820;2022-11-14T21:01:02;96226.22;;;17.34;51.46
40596;BME280;26304;48.794;9.820;2022-11-14T21:06:46;96218.72;;;17.36;51.66
40596;BME280;26304;48.794;9.820;2022-11-14T21:12:28;96217.94;;;17.32;51.48
40596;BME280;26304;48.794;9.820;2022-11-14T21:18:10;96206.97;;;17.19;51.76
40596;BME280;26304;48.794;9.820;2022-11-14T21:23:55;96213.91;;;16.97;51.99
40596;BME280;26304;48.794;9.820;2022-11-14T21:29:38;96212.91;;;17.09;52.25
40596;BME280;26304;48.794;9.820;2022-11-14T21:35:20;96205.38;;;17.08;52.25
40596;BME280;26304;48.794;9.820;2022-11-14T21:41:05;96201.25;;;17.10;52.51
40596;BME280;26304;48.794;9.820;2022-11-14T21:46:47;96197.09;;;17.05;52.80
40596;BME280;26304;48.794;9.820;2022-11-14T21:52:30;96198.63;;;17.06;52.78
40596;BME280;26304;48.794;9.820;2022-11-14T21:58:14;96194.47;;;17.05;52.89
40596;BME280;26304;48.794;9.820;2022-11-14T22:03:56;96197.84;;;17.02;52.76
40596;BME280;26304;48.794;9.820;2022-11-14T22:09:54;96195.59;;;17.01;52.78
40596;BME280;26304;48.794;9.820;2022-11-14T22:15:38;96188.03;;;16.96;52.90
40596;BME280;26304;48.794;9.820;2022-11-14T22:21:20;96186.84;;;16.89;52.26
40596;BME280;26304;48.794;9.820;2022-11-14T22:27:02;96196.59;;;16.85;52.50
40596;BME280;26304;48.794;9.820;2022-11-14T22:32:46;96194.22;;;16.77;52.17
40596;BME280;26304;48.794;9.820;2022-11-14T22:38:29;96184.44;;;16.74;51.84
40596;BME280;26304;48.794;9.820;2022-11-14T22:44:12;96185.94;;;16.75;51.47
40596;BME280;26304;48.794;9.820;2022-11-14T22:49:55;96186.34;;;16.77;51.59
40596;BME280;26304;48.794;9.820;2022-11-14T22:55:45;96187.13;;;16.81;52.49
40596;BME280;26304;48.794;9.820;2022-11-14T23:01:29;96180.69;;;16.71;52.67
40596;BME280;26304;48.794;9.820;2022-11-14T23:07:13;96182.59;;;16.74;52.76
40596;BME280;26304;48.794;9.820;2022-11-14T23:12:55;96181.78;;;16.70;52.89
40596;BME280;26304;48.794;9.820;2022-11-14T23:18:39;96184.06;;;16.71;52.75
40596;BME280;26304;48.794;9.820;2022-11-14T23:24:23;96184.44;;;16.74;52.84
40596;BME280;26304;48.794;9.820;2022-11-14T23:30:06;96177.31;;;16.70;53.10
40596;BME280;26304;48.794;9.820;2022-11-14T23:35:49;96167.56;;;16.71;53.53
40596;BME280;26304;48.794;9.820;2022-11-14T23:41:32;96174.69;;;16.70;53.10
40596;BME280;26304;48.794;9.820;2022-11-14T23:47:15;96170.88;;;16.64;53.18
40596;BME280;26304;48.794;9.820;2022-11-14T23:52:57;96165.22;;;16.62;53.43
40596;BME280;26304;48.794;9.820;2022-11-14T23:58:41;96152.47;;;16.61;52.51
